Terminal Aerodrome Forecast
Issued by NWS Jackson, KY

Home | Current Version | Previous Version | Text Only | Print | Product List | Glossary On
Versions: 1 2 3 4 5 6 7 8 9 10 11 12 13 14 15 16
000
FTUS43 KJKL 301700
TAFJKL
TAF
KJKL 301720Z 3018/0118 VRB04KT P6SM SKC
     FM010700 00000KT 5SM BR SKC
     FM010830 00000KT 1 1/2SM BR FEW002
     FM011000 00000KT 3/4SM BR OVC002
     FM011200 00000KT 2SM BR SCT002
     FM011300 VRB02KT P6SM SKC=

USA.gov is the U.S. government's official web portal to all federal, state and local government web resources and services.